createdAt,value
2018-03-27T06:55:31.422Z,87.86
2018-03-27T06:56:31.536Z,88.25
2018-03-27T06:57:31.447Z,87.93
2018-03-27T06:58:08.737Z,88.27
2018-03-27T06:59:09.045Z,88.46
2018-03-27T07:00:08.748Z,88.62
2018-03-27T07:01:08.732Z,88.15
2018-03-27T07:02:08.776Z,88.1
2018-03-27T07:03:08.767Z,87.97
2018-03-27T07:04:08.826Z,88.57
2018-03-27T07:05:08.797Z,88.32
2018-03-27T07:06:08.794Z,87.72
2018-03-27T07:07:08.799Z,88.72
2018-03-27T07:08:08.787Z,88.22
2018-03-27T07:09:08.846Z,87.41
2018-03-27T07:10:08.803Z,87.9
2018-03-27T07:11:08.763Z,88.21
2018-03-27T07:12:08.822Z,87.5
2018-03-27T07:13:08.812Z,87.51
2018-03-27T07:14:08.901Z,87.37
2018-03-27T07:15:08.807Z,87.29
2018-03-27T07:16:08.832Z,87.68
2018-03-27T07:17:08.795Z,88.3
2018-03-27T07:18:08.840Z,88.04
2018-03-27T07:19:08.847Z,87.2
2018-03-27T07:20:08.795Z,87.81
2018-03-27T07:21:08.745Z,87.57
2018-03-27T07:22:08.710Z,87.68
2018-03-27T07:23:08.725Z,88.48
2018-03-27T07:24:08.720Z,88.42
2018-03-27T07:25:08.740Z,87.72
2018-03-27T07:26:08.725Z,87.57
2018-03-27T07:27:08.714Z,88.04
2018-03-27T07:28:08.809Z,87.52
2018-03-27T07:29:08.692Z,87.54
2018-03-27T07:30:08.723Z,87.45
2018-03-27T07:31:08.710Z,88.09
2018-03-27T07:32:08.800Z,88.5
2018-03-27T07:33:08.707Z,87.5
2018-03-27T07:34:08.699Z,88.35
2018-03-27T07:35:08.682Z,87.87
2018-03-27T07:36:08.702Z,87.86
2018-03-27T07:37:08.727Z,87.78
2018-03-27T07:38:08.682Z,86.64
2018-03-27T07:39:08.678Z,87.99
2018-03-27T07:40:08.688Z,87.09
2018-03-27T07:41:08.686Z,88.02
2018-03-27T07:42:08.693Z,87.87
2018-03-27T07:43:08.671Z,88.13
2018-03-27T07:44:08.694Z,88.47
2018-03-27T07:45:08.677Z,87.36
2018-03-27T07:46:08.665Z,86.89
2018-03-27T07:47:08.683Z,87.55
2018-03-27T07:48:08.693Z,87.2
2018-03-27T07:49:08.668Z,87.63
2018-03-27T07:50:08.699Z,88.73
2018-03-27T07:51:08.671Z,88.03
2018-03-27T07:52:08.672Z,87.33
2018-03-27T07:53:08.705Z,87.53
2018-03-27T07:54:08.672Z,87.21
2018-03-27T07:55:08.650Z,87.65
2018-03-27T07:56:08.647Z,87.96
2018-03-27T07:57:08.658Z,87.84
2018-03-27T07:58:08.657Z,87.43
2018-03-27T07:59:08.747Z,87.81
2018-03-27T08:00:08.645Z,88.3
2018-03-27T08:01:08.646Z,88.25
2018-03-27T08:02:08.663Z,87.75
2018-03-27T08:03:08.639Z,88.24
2018-03-27T08:04:08.656Z,87.72
2018-03-27T08:05:08.646Z,88.18
2018-03-27T08:06:08.660Z,88.02
2018-03-27T08:07:08.646Z,87.72
2018-03-27T08:08:08.632Z,87.8
2018-03-27T08:09:08.624Z,87.1
2018-03-27T08:10:08.634Z,87.48
2018-03-27T08:11:08.885Z,86.75
2018-03-27T08:12:08.624Z,86.29
2018-03-27T08:13:08.639Z,86.14
2018-03-27T08:14:08.622Z,86.73
2018-03-27T08:15:08.621Z,86.97
2018-03-27T08:16:08.644Z,86.12
2018-03-27T08:17:08.629Z,85.87
2018-03-27T08:18:08.654Z,85.82
2018-03-27T08:19:08.611Z,85.84
2018-03-27T08:20:08.634Z,85.27
2018-03-27T08:21:08.640Z,85.5
2018-03-27T08:22:08.632Z,85.62
2018-03-27T08:23:08.607Z,85.98
2018-03-27T08:24:09.332Z,84.97
2018-03-27T08:25:08.599Z,85.7
2018-03-27T08:26:08.600Z,84.66
2018-03-27T08:27:08.614Z,84.3
2018-03-27T08:28:08.601Z,85.11
2018-03-27T08:29:08.603Z,84.95
2018-03-27T08:30:08.698Z,84.05
2018-03-27T08:31:08.601Z,84.95
2018-03-27T08:32:08.600Z,84.72
2018-03-27T08:33:08.599Z,84.73
2018-03-27T08:34:08.582Z,84.75
2018-03-27T08:35:08.592Z,84.88
2018-03-27T08:36:08.596Z,84.33
2018-03-27T08:37:08.585Z,83.75
2018-03-27T08:38:08.590Z,83.71
2018-03-27T08:39:08.850Z,83.84
2018-03-27T08:40:08.583Z,83.2
2018-03-27T08:41:08.585Z,82.71
2018-03-27T08:42:08.606Z,83.3
2018-03-27T08:43:08.570Z,82.99
2018-03-27T08:44:08.578Z,82.98
2018-03-27T08:45:08.585Z,83.41
2018-03-27T08:46:08.602Z,82.21
2018-03-27T08:47:08.570Z,82.71
2018-03-27T08:48:08.578Z,82.62
2018-03-27T08:49:08.622Z,82.71
2018-03-27T08:50:08.592Z,82.69
2018-03-27T08:51:08.602Z,83.88
2018-03-27T08:52:08.863Z,83.28
2018-03-27T08:53:08.579Z,83.81
2018-03-27T08:54:08.721Z,83.07
2018-03-27T08:55:08.576Z,83.28
2018-03-27T08:56:08.786Z,83.49
2018-03-27T08:57:08.577Z,83.01
2018-03-27T08:58:08.583Z,82.61
2018-03-27T08:59:08.570Z,83.29
2018-03-27T09:00:08.579Z,83.48
2018-03-27T09:01:08.662Z,83.65
2018-03-27T09:02:08.567Z,83.48
2018-03-27T09:03:08.561Z,82.38
2018-03-27T09:04:08.572Z,82.12
2018-03-27T09:05:08.557Z,81.46
2018-03-27T09:06:08.578Z,81.31
2018-03-27T09:07:08.570Z,82.09
2018-03-27T09:08:08.575Z,81.68
2018-03-27T09:09:08.774Z,80.86
2018-03-27T09:10:08.555Z,79.96
2018-03-27T09:11:08.570Z,78.72
2018-03-27T09:12:08.631Z,79.11
2018-03-27T09:13:08.881Z,78.63
2018-03-27T09:14:08.552Z,77.6
2018-03-27T09:15:08.657Z,77.91
2018-03-27T09:16:09.000Z,77.97
2018-03-27T09:17:08.552Z,77.83
2018-03-27T09:18:08.565Z,78.37
2018-03-27T09:19:08.550Z,78.24
2018-03-27T09:20:08.588Z,77.98
2018-03-27T09:21:08.556Z,77.99
2018-03-27T09:22:08.569Z,77.03
2018-03-27T09:23:08.569Z,77.39
2018-03-27T09:24:08.748Z,77.45
2018-03-27T09:25:08.563Z,76.55
2018-03-27T09:26:08.541Z,76.91
2018-03-27T09:27:08.591Z,76.72
2018-03-27T09:28:08.548Z,76.29
2018-03-27T09:29:08.547Z,76.41
2018-03-27T09:30:08.572Z,76.26
2018-03-27T09:31:08.560Z,75.94
2018-03-27T09:32:08.771Z,74.95
2018-03-27T09:33:08.558Z,75.31
2018-03-27T09:34:08.589Z,73.95
2018-03-27T09:35:08.556Z,73.1
2018-03-27T09:36:08.556Z,73.54
2018-03-27T09:37:08.554Z,73.52
2018-03-27T09:38:08.550Z,74.15
2018-03-27T09:39:08.577Z,73.38
2018-03-27T09:40:08.543Z,72.83
2018-03-27T09:41:08.543Z,72
2018-03-27T09:42:08.532Z,72.32
2018-03-27T09:43:08.540Z,71.73
2018-03-27T09:44:08.541Z,71.82
2018-03-27T09:45:08.563Z,72.29
2018-03-27T09:46:08.539Z,72.83
2018-03-27T09:47:08.552Z,73.2
2018-03-27T09:48:08.869Z,73.72
2018-03-27T09:49:08.542Z,73.65
2018-03-27T09:50:08.529Z,73.54
2018-03-27T09:51:08.627Z,73.6
2018-03-27T09:52:08.544Z,73.26
2018-03-27T09:53:08.534Z,72.34
2018-03-27T09:54:08.535Z,72.19
2018-03-27T09:55:08.537Z,72.33
2018-03-27T09:56:08.526Z,72.16
2018-03-27T09:57:08.522Z,72.56
2018-03-27T09:58:08.532Z,72.27
2018-03-27T09:59:08.531Z,72.37
2018-03-27T10:00:08.581Z,72.67
2018-03-27T10:01:08.535Z,72.82
2018-03-27T10:02:08.527Z,72.79
2018-03-27T10:03:08.649Z,72.35
2018-03-27T10:04:08.531Z,71.7
2018-03-27T10:05:08.540Z,71.27
2018-03-27T10:06:08.528Z,71.85
2018-03-27T10:07:08.537Z,72.05
2018-03-27T10:08:08.543Z,72.29
2018-03-27T10:09:08.515Z,71.87
2018-03-27T10:10:08.528Z,71.93
2018-03-27T10:11:08.521Z,71.86
2018-03-27T10:12:08.524Z,72
2018-03-27T10:13:08.510Z,71.11
2018-03-27T10:14:08.530Z,70.79
2018-03-27T10:15:08.547Z,70.32
2018-03-27T10:16:08.521Z,70.62
2018-03-27T10:17:08.515Z,71.02
2018-03-27T10:18:08.510Z,70.94
2018-03-27T10:19:08.552Z,70.64
2018-03-27T10:20:08.524Z,71.24
2018-03-27T10:21:08.503Z,70.32
2018-03-27T10:22:08.785Z,69.56
2018-03-27T10:23:08.521Z,70.25
2018-03-27T10:24:08.543Z,70.5
2018-03-27T10:25:08.519Z,70.27
2018-03-27T10:26:08.814Z,69.3
2018-03-27T10:27:08.554Z,68.43
2018-03-27T10:28:08.527Z,69.09
2018-03-27T10:29:08.556Z,69.07
2018-03-27T10:30:08.538Z,68.07
2018-03-27T10:31:08.514Z,68.48
2018-03-27T10:32:08.520Z,68.74
2018-03-27T10:33:08.526Z,68.08
2018-03-27T10:34:08.562Z,67.53
2018-03-27T10:35:08.502Z,67.58
2018-03-27T10:36:08.523Z,66.49
2018-03-27T10:37:08.508Z,66.46
2018-03-27T10:38:11.582Z,67.17
2018-03-27T10:39:08.521Z,66.82
2018-03-27T10:40:08.498Z,66.6
2018-03-27T10:41:08.552Z,66.42
2018-03-27T10:42:08.520Z,65.95
2018-03-27T10:43:08.531Z,65.89
2018-03-27T10:44:08.508Z,65.91
2018-03-27T10:45:08.502Z,64.86
2018-03-27T10:46:08.488Z,64.6
2018-03-27T10:47:08.506Z,64.16
2018-03-27T10:48:08.511Z,64.57
2018-03-27T10:49:08.499Z,65.37
2018-03-27T10:50:08.516Z,65.41
2018-03-27T10:51:08.513Z,65.21
2018-03-27T10:52:08.488Z,65.95
2018-03-27T10:53:08.493Z,66.09
2018-03-27T10:54:08.863Z,65.52
2018-03-27T10:55:08.515Z,64.24
2018-03-27T10:56:08.501Z,64.19
2018-03-27T10:57:08.486Z,64.34
2018-03-27T10:58:08.489Z,62.88
2018-03-27T10:59:08.518Z,63.23
2018-03-27T11:00:08.511Z,63.78
2018-03-27T11:01:08.487Z,63.71
2018-03-27T11:02:08.496Z,64.4
2018-03-27T11:03:08.510Z,63.45
2018-03-27T11:04:08.491Z,62.73
2018-03-27T11:05:08.589Z,63.46
2018-03-27T11:06:08.493Z,62.91
2018-03-27T11:07:08.513Z,63.9
2018-03-27T11:08:08.503Z,63.4
2018-03-27T11:09:08.504Z,63.71
2018-03-27T11:10:08.541Z,64.12
2018-03-27T11:11:08.613Z,65.06
2018-03-27T11:12:08.507Z,65.33
2018-03-27T11:13:09.013Z,64.71
2018-03-27T11:14:08.571Z,64.86
2018-03-27T11:15:08.577Z,65.23
2018-03-27T11:16:12.802Z,65.23
2018-03-27T11:17:08.520Z,65.51
2018-03-27T11:18:08.495Z,65.68
2018-03-27T11:19:08.504Z,65.54
2018-03-27T11:20:08.531Z,65.07
2018-03-27T11:21:08.536Z,64.43
2018-03-27T11:22:08.515Z,64.82
2018-03-27T11:23:08.522Z,64.55
2018-03-27T11:24:08.525Z,65.05
2018-03-27T11:25:08.513Z,64.24
2018-03-27T11:26:08.512Z,64.67
2018-03-27T11:27:08.505Z,63.57
2018-03-27T11:28:08.537Z,64.49
2018-03-27T11:29:08.525Z,64.69
2018-03-27T11:30:08.530Z,64.29
2018-03-27T11:31:08.517Z,64.1
2018-03-27T11:32:08.589Z,64.63
2018-03-27T11:33:08.506Z,64.19
2018-03-27T11:34:08.514Z,64.39
2018-03-27T11:35:08.628Z,64.47
2018-03-27T11:36:08.602Z,64.74
2018-03-27T11:37:08.516Z,63.38
2018-03-27T11:38:08.539Z,63.19
2018-03-27T11:39:08.528Z,62.56
2018-03-27T11:40:08.538Z,61.86
2018-03-27T11:41:08.528Z,62.78
2018-03-27T11:42:08.509Z,63.03
2018-03-27T11:43:08.522Z,62.37
2018-03-27T11:44:08.526Z,62.01
2018-03-27T11:45:08.549Z,61.73
2018-03-27T11:46:08.514Z,62.31
2018-03-27T11:47:08.528Z,62.25
2018-03-27T11:48:08.620Z,61.4
2018-03-27T11:49:08.574Z,60.85
2018-03-27T11:50:08.540Z,61.09
2018-03-27T11:51:08.563Z,60.59
2018-03-27T11:52:08.549Z,60.57
2018-03-27T11:53:08.580Z,61.42
2018-03-27T11:54:08.524Z,61.25
2018-03-27T11:55:08.544Z,61.39
2018-03-27T11:56:08.523Z,60.92
2018-03-27T11:57:08.598Z,61.16
2018-03-27T11:58:08.534Z,60.29
2018-03-27T11:59:08.536Z,60.29
2018-03-27T12:00:08.544Z,60.41
2018-03-27T12:01:08.531Z,60.06
2018-03-27T12:02:08.526Z,60.83
2018-03-27T12:03:08.536Z,60.96
2018-03-27T12:04:08.534Z,60.14
2018-03-27T12:05:08.578Z,59.82
2018-03-27T12:06:08.537Z,60.62
2018-03-27T12:07:08.619Z,60.96
2018-03-27T12:08:08.569Z,59.11
2018-03-27T12:09:08.559Z,60.69
2018-03-27T12:10:08.559Z,59.86
2018-03-27T12:11:08.545Z,59.13
2018-03-27T12:12:08.569Z,59.49
2018-03-27T12:13:08.551Z,59.77
2018-03-27T12:14:08.534Z,59.25
2018-03-27T12:15:08.548Z,59.48
2018-03-27T12:16:08.586Z,58.46
2018-03-27T12:17:08.532Z,60.03
2018-03-27T12:18:08.540Z,59.05
2018-03-27T12:19:08.542Z,59.63
2018-03-27T12:20:08.530Z,59.33
2018-03-27T12:21:08.971Z,58.23
2018-03-27T12:22:08.530Z,59.41
2018-03-27T12:23:08.528Z,58.75
2018-03-27T12:24:08.536Z,58.13
2018-03-27T12:24:57.275Z,56.39
2018-03-27T12:25:57.276Z,57.45
2018-03-27T12:26:57.247Z,57.98
2018-03-27T12:27:57.233Z,57.52
2018-03-27T12:28:57.246Z,58.24
2018-03-27T12:29:57.299Z,57.19
2018-03-27T12:30:57.236Z,57.38
2018-03-27T12:31:57.225Z,56.78
2018-03-27T12:32:57.268Z,56.24
2018-03-27T12:33:57.236Z,54.05
2018-03-27T12:34:57.229Z,55.14
2018-03-27T12:35:57.249Z,56.02
2018-03-27T12:36:57.318Z,56.13
2018-03-27T12:37:57.227Z,56.03
2018-03-27T12:38:57.220Z,55.74
2018-03-27T12:39:57.233Z,55.9
2018-03-27T12:40:57.257Z,56.45
2018-03-27T12:41:57.204Z,54.51
2018-03-27T12:42:57.219Z,53.87
2018-03-27T12:43:57.209Z,53.52
2018-03-27T12:44:57.202Z,53.87
2018-03-27T12:45:57.226Z,51.69
2018-03-27T12:46:57.231Z,52.32
2018-03-27T12:47:57.215Z,51.41
2018-03-27T12:48:57.632Z,52.7
2018-03-27T12:49:57.210Z,50.55
2018-03-27T12:50:57.222Z,50.63
2018-03-27T12:51:57.210Z,48.59
2018-03-27T12:52:57.202Z,51.43
2018-03-27T12:53:57.241Z,49.41
2018-03-27T12:54:57.307Z,51.07
2018-03-27T12:55:57.192Z,48.42
2018-03-27T12:56:57.286Z,48.64
2018-03-27T12:57:57.204Z,51.53
2018-03-27T12:58:57.174Z,51.96
2018-03-27T12:59:57.201Z,50.75
2018-03-27T13:00:57.193Z,51.35
2018-03-27T13:01:57.200Z,50.65
2018-03-27T13:02:57.254Z,50.93
2018-03-27T13:03:57.190Z,50.18
2018-03-27T13:04:57.484Z,48.62
2018-03-27T13:05:57.179Z,49.06
2018-03-27T13:06:57.192Z,50.74
2018-03-27T13:07:57.165Z,49.73
2018-03-27T13:08:57.181Z,50.18
2018-03-27T13:09:57.199Z,50
2018-03-27T13:10:57.172Z,48.94
2018-03-27T13:11:57.177Z,48.23
2018-03-27T13:12:57.166Z,48.83
2018-03-27T13:13:57.184Z,47.86
2018-03-27T13:14:57.188Z,48.5
2018-03-27T13:15:57.161Z,48.95
2018-03-27T13:16:57.167Z,48.69
2018-03-27T13:17:57.186Z,49.1
2018-03-27T13:18:57.155Z,48.49
2018-03-27T13:19:57.492Z,48.15
2018-03-27T13:20:57.157Z,47.44
2018-03-27T13:21:57.170Z,48.82
2018-03-27T13:22:57.204Z,50.01
2018-03-27T13:23:57.176Z,48.59
2018-03-27T13:24:57.175Z,48.91
2018-03-27T13:25:57.248Z,49.1
2018-03-27T13:26:57.145Z,48.47
2018-03-27T13:27:57.200Z,46.93
2018-03-27T13:28:57.151Z,45
2018-03-27T13:29:57.159Z,46.26
2018-03-27T13:30:57.132Z,47.53
2018-03-27T13:31:57.138Z,47.31
2018-03-27T13:32:57.127Z,49.2
2018-03-27T13:33:57.127Z,48.33
2018-03-27T13:34:57.279Z,48.06
2018-03-27T13:35:57.157Z,47.94
2018-03-27T13:36:57.140Z,45.25
2018-03-27T13:37:57.145Z,44.34
2018-03-27T13:38:57.554Z,46.29
2018-03-27T13:39:57.121Z,48.16
2018-03-27T13:40:57.165Z,45.4
2018-03-27T13:41:57.141Z,45.37
2018-03-27T13:42:57.110Z,44.18
2018-03-27T13:43:57.112Z,46.2
2018-03-27T13:44:57.124Z,45.84
2018-03-27T13:45:57.141Z,45.43
2018-03-27T13:46:57.108Z,44.28
2018-03-27T13:47:57.272Z,43.93
2018-03-27T13:48:57.126Z,45.11
2018-03-27T13:49:57.105Z,45.29
2018-03-27T13:50:57.142Z,46.51
2018-03-27T13:51:57.128Z,46.31
2018-03-27T13:52:57.108Z,44.62
2018-03-27T13:53:57.105Z,44.45
2018-03-27T13:54:57.100Z,44.86
2018-03-27T13:55:57.381Z,45.59
2018-03-27T13:56:57.164Z,42.34
2018-03-27T13:57:57.106Z,41.67
2018-03-27T13:58:57.160Z,43.62
2018-03-27T13:59:57.161Z,41.15
2018-03-27T14:00:57.169Z,43.51
2018-03-27T14:01:57.146Z,42.06
2018-03-27T14:02:57.113Z,42.81
2018-03-27T14:03:57.157Z,42.69
2018-03-27T14:04:57.949Z,40.92
2018-03-27T14:05:57.692Z,40.87
2018-03-27T14:06:57.188Z,39.91
2018-03-27T14:07:57.224Z,41.16
2018-03-27T14:08:57.229Z,42.07
2018-03-27T14:09:57.288Z,39.86
2018-03-27T14:10:57.217Z,42.38
2018-03-27T14:11:57.135Z,42.69
2018-03-27T14:12:57.131Z,41.49
2018-03-27T14:13:57.151Z,43.55
2018-03-27T14:14:57.408Z,41.86
2018-03-27T14:15:57.184Z,42.47
2018-03-27T14:16:57.139Z,40.16
2018-03-27T14:17:57.128Z,41.58
2018-03-27T14:18:57.125Z,43.21
2018-03-27T14:19:57.145Z,40.71
2018-03-27T14:20:57.144Z,40.15
2018-03-27T14:21:57.176Z,40.47
2018-03-27T14:22:57.099Z,40.52
2018-03-27T14:23:57.086Z,40.75
2018-03-27T14:24:57.136Z,40.69
2018-03-27T14:25:57.151Z,40.19
2018-03-27T14:26:57.168Z,41.07
2018-03-27T14:27:57.241Z,41.77
2018-03-27T14:28:57.093Z,42.68
2018-03-27T14:29:57.117Z,41.72
2018-03-27T14:30:57.158Z,43.22
2018-03-27T14:31:57.083Z,43.75
2018-03-27T14:32:57.196Z,41.08
2018-03-27T14:33:57.118Z,41.05
2018-03-27T14:34:57.059Z,40.85
2018-03-27T14:35:57.111Z,41.75
2018-03-27T14:36:57.379Z,41.78
2018-03-27T14:37:57.138Z,42.76
2018-03-27T14:38:57.089Z,43.06
2018-03-27T14:39:57.086Z,43.04
2018-03-27T14:40:57.094Z,41.94
2018-03-27T14:41:57.107Z,42.59
2018-03-27T14:42:57.114Z,42.78
2018-03-27T14:43:57.100Z,44.51
2018-03-27T14:44:57.076Z,43.65
2018-03-27T14:45:57.093Z,43.75
2018-03-27T14:46:57.039Z,43.93
2018-03-27T14:47:57.134Z,43.77
2018-03-27T14:48:57.121Z,43.65
2018-03-27T14:49:57.080Z,45.17
2018-03-27T14:50:57.067Z,45.31
2018-03-27T14:51:57.093Z,43.66
2018-03-27T14:52:57.043Z,44.67
2018-03-27T14:53:57.059Z,44.3
2018-03-27T14:54:57.046Z,44.8
2018-03-27T14:55:57.169Z,44.53
2018-03-27T14:56:57.109Z,44.87
2018-03-27T14:57:57.064Z,44.8
2018-03-27T14:58:57.121Z,46.03
2018-03-27T14:59:57.111Z,44.97
2018-03-27T15:00:57.078Z,44.67
2018-03-27T15:01:57.061Z,44.81
2018-03-27T15:02:57.048Z,44.45
2018-03-27T15:03:57.043Z,44.62
2018-03-27T15:04:57.234Z,45.15
2018-03-27T15:05:57.111Z,45.35
2018-03-27T15:06:57.111Z,44.46
2018-03-27T15:07:57.067Z,44.33
2018-03-27T15:08:57.078Z,44.7
2018-03-27T15:09:57.098Z,45.19
2018-03-27T15:10:57.156Z,44.79
2018-03-27T15:11:57.077Z,45.94
2018-03-27T15:12:57.045Z,45.84
2018-03-27T15:13:57.038Z,46.74
2018-03-27T15:14:57.079Z,45.67
2018-03-27T15:15:57.077Z,45.17
2018-03-27T15:16:57.082Z,46.55
2018-03-27T15:17:57.065Z,44.96
2018-03-27T15:18:57.050Z,45.97
2018-03-27T15:19:57.065Z,44.24
2018-03-27T15:20:57.076Z,44.66
2018-03-27T15:21:57.229Z,44.26
2018-03-27T15:22:57.021Z,42.59
2018-03-27T15:23:57.060Z,44.26
2018-03-27T15:24:57.045Z,44.23
2018-03-27T15:25:57.077Z,44.54
2018-03-27T15:26:57.397Z,44.18
2018-03-27T15:27:57.123Z,44.03
2018-03-27T15:28:57.025Z,44.4
2018-03-27T15:29:57.135Z,44.37
2018-03-27T15:30:57.027Z,43.79
2018-03-27T15:31:57.153Z,43.39
2018-03-27T15:32:56.991Z,44.29
2018-03-27T15:33:57.005Z,44.47
2018-03-27T15:34:57.016Z,44.4
2018-03-27T15:35:57.044Z,43.97
2018-03-27T15:36:57.024Z,44.08
2018-03-27T15:37:57.008Z,44.3
2018-03-27T15:38:56.988Z,44.37
2018-03-27T15:39:56.978Z,45.24
2018-03-27T15:40:57.016Z,44.81
2018-03-27T15:41:56.976Z,44.65
2018-03-27T15:42:57.010Z,44.1
2018-03-27T15:43:56.969Z,44.44
2018-03-27T15:44:56.976Z,44.17
2018-03-27T15:45:56.994Z,43.89
2018-03-27T15:46:57.025Z,44
2018-03-27T15:47:57.007Z,44.39
2018-03-27T15:48:56.976Z,44.47
2018-03-27T15:49:56.978Z,44.39
2018-03-27T15:50:56.986Z,44.21
2018-03-27T15:51:56.972Z,44.6
2018-03-27T15:52:56.975Z,45.61
2018-03-27T15:53:57.029Z,45.27
2018-03-27T15:54:57.001Z,45.36
2018-03-27T15:55:56.983Z,44.23
2018-03-27T15:56:57.002Z,44.71
2018-03-27T15:57:57.006Z,44.53
2018-03-27T15:58:56.976Z,44.13
2018-03-27T15:59:56.979Z,44.66
2018-03-27T16:00:57.020Z,45.17
2018-03-27T16:01:57.273Z,46.02
2018-03-27T16:02:56.968Z,46.57
2018-03-27T16:03:56.976Z,46.43
2018-03-27T16:04:56.980Z,46.72
2018-03-27T16:05:56.967Z,45.81
2018-03-27T16:06:57.178Z,46.19
2018-03-27T16:07:57.040Z,46.57
2018-03-27T16:08:56.976Z,46.39
2018-03-27T16:09:57.080Z,46.78
2018-03-27T16:10:56.973Z,46.86
2018-03-27T16:11:57.002Z,47.13
2018-03-27T16:12:56.986Z,47.82
2018-03-27T16:13:56.978Z,47.54
2018-03-27T16:14:56.967Z,46.44
2018-03-27T16:15:56.988Z,46.15
2018-03-27T16:16:56.975Z,46.21
2018-03-27T16:17:57.039Z,46.16
2018-03-27T16:18:56.986Z,46.12
2018-03-27T16:19:56.968Z,46.42
2018-03-27T16:20:56.973Z,46.32
2018-03-27T16:21:56.954Z,46.91
2018-03-27T16:22:57.006Z,47.45
2018-03-27T16:23:56.958Z,46.13
2018-03-27T16:24:56.982Z,46.31
2018-03-27T16:25:56.973Z,46.32
2018-03-27T16:26:56.956Z,45.96
2018-03-27T16:27:56.987Z,46.34
2018-03-27T16:28:56.990Z,46.14
2018-03-27T16:29:56.988Z,46.28
2018-03-27T16:30:57.009Z,46.47
2018-03-27T16:31:57.206Z,46.21
2018-03-27T16:32:56.967Z,46.53
2018-03-27T16:33:56.954Z,47.22
2018-03-27T16:34:56.957Z,47.5
2018-03-27T16:35:56.977Z,47.52
2018-03-27T16:36:56.960Z,48.17
2018-03-27T16:37:56.993Z,47.28
2018-03-27T16:38:56.973Z,47.21
2018-03-27T16:39:56.968Z,48.01
2018-03-27T16:40:56.965Z,46.7
2018-03-27T16:41:56.959Z,46.75
2018-03-27T16:42:56.976Z,47.24
2018-03-27T16:43:56.980Z,47.36
2018-03-27T16:44:56.951Z,47.45
2018-03-27T16:45:56.958Z,47.96
2018-03-27T16:46:57.082Z,48.51
2018-03-27T16:47:57.286Z,47.31
2018-03-27T16:48:56.951Z,47.46
2018-03-27T16:49:56.983Z,47.22
2018-03-27T16:50:56.977Z,47.02
2018-03-27T16:51:56.978Z,47.44
2018-03-27T16:52:57.067Z,47.95
2018-03-27T16:53:56.983Z,48.11
2018-03-27T16:54:56.976Z,48.03
2018-03-27T16:55:56.986Z,48.09
2018-03-27T16:56:57.029Z,48.6
2018-03-27T16:57:57.077Z,48.83
2018-03-27T16:58:56.960Z,49.03
2018-03-27T16:59:56.954Z,48.8
2018-03-27T17:00:56.984Z,49.1
2018-03-27T17:01:56.957Z,48.7
2018-03-27T17:02:57.063Z,48.65
2018-03-27T17:03:56.984Z,48.11
2018-03-27T17:04:57.002Z,48.1
2018-03-27T17:05:56.954Z,48.34
2018-03-27T17:06:56.977Z,48.43
2018-03-27T17:07:56.997Z,48.68
2018-03-27T17:08:56.971Z,49.45
2018-03-27T17:09:56.977Z,49.27
2018-03-27T17:10:56.962Z,49.26
2018-03-27T17:11:56.962Z,49.92
2018-03-27T17:12:56.998Z,49.73
2018-03-27T17:13:56.979Z,49.67
2018-03-27T17:14:56.968Z,50.12
2018-03-27T17:15:56.973Z,49.74
2018-03-27T17:16:57.033Z,50.41
2018-03-27T17:17:57.016Z,50.86
2018-03-27T17:18:57.313Z,51.42
2018-03-27T17:19:56.977Z,50.47
2018-03-27T17:20:56.997Z,50.68
2018-03-27T17:21:56.990Z,50.28
2018-03-27T17:22:56.964Z,48.81
2018-03-27T17:23:56.999Z,48.24
2018-03-27T17:24:56.981Z,48.78
2018-03-27T17:25:56.979Z,48.15
2018-03-27T17:26:56.999Z,49.04
2018-03-27T17:27:57.004Z,48.26
2018-03-27T17:28:57.043Z,48.38
2018-03-27T17:29:56.977Z,47.98
2018-03-27T17:30:56.984Z,48.51
2018-03-27T17:31:56.982Z,48.05
2018-03-27T17:32:56.970Z,48.4
2018-03-27T17:33:57.048Z,49.25
2018-03-27T17:34:56.981Z,49.38
2018-03-27T17:35:56.969Z,49.3
2018-03-27T17:36:57.039Z,49.43
2018-03-27T17:37:56.981Z,50.27
2018-03-27T17:38:57.012Z,50.8
2018-03-27T17:39:56.978Z,50.8
2018-03-27T17:40:56.999Z,51.08
2018-03-27T17:41:57.176Z,51.28
2018-03-27T17:42:56.983Z,50.73
2018-03-27T17:43:56.976Z,51.32
2018-03-27T17:44:56.989Z,51.18
2018-03-27T17:45:57.006Z,51.57
2018-03-27T17:46:56.989Z,52.38
2018-03-27T17:47:57.009Z,52.54
2018-03-27T17:48:56.983Z,52.5
2018-03-27T17:49:56.962Z,52.98
2018-03-27T17:50:57.003Z,53.17
2018-03-27T17:51:56.978Z,53.21
2018-03-27T17:52:57.074Z,53.57
2018-03-27T17:53:56.978Z,53.95
2018-03-27T17:54:56.978Z,54.38
2018-03-27T17:55:57.066Z,54.5
2018-03-27T17:56:56.980Z,55.1
2018-03-27T17:57:57.019Z,55.92
2018-03-27T17:58:56.968Z,56.88
2018-03-27T17:59:56.970Z,57.64
2018-03-27T18:00:56.988Z,56.38
2018-03-27T18:01:56.991Z,57.65
2018-03-27T18:02:56.998Z,57.79
2018-03-27T18:03:57.024Z,58.44
2018-03-27T18:04:57.389Z,58.04
2018-03-27T18:05:56.970Z,58.09
2018-03-27T18:06:56.989Z,58.49
2018-03-27T18:07:56.986Z,58.75
2018-03-27T18:08:57.034Z,58.41
2018-03-27T18:09:57.002Z,58.25
2018-03-27T18:10:56.989Z,57.74
2018-03-27T18:11:57.237Z,58.31
2018-03-27T18:12:57.092Z,59.07
2018-03-27T18:13:56.976Z,58.12
2018-03-27T18:14:56.980Z,57.48
2018-03-27T18:15:57.007Z,58.25
2018-03-27T18:16:57.004Z,58.04
2018-03-27T18:17:57.010Z,58.24
2018-03-27T18:18:56.993Z,59.07
2018-03-27T18:19:56.986Z,57.72
2018-03-27T18:20:56.980Z,59.04
2018-03-27T18:21:57.008Z,59.39
2018-03-27T18:22:57.047Z,59.74
2018-03-27T18:23:57.263Z,60.04
2018-03-27T18:24:56.984Z,59.68
2018-03-27T18:25:56.993Z,60.04
2018-03-27T18:26:57.013Z,60.67
2018-03-27T18:27:57.878Z,60.34
2018-03-27T18:28:56.988Z,60.74
2018-03-27T18:29:57.020Z,61.16
2018-03-27T18:30:57.267Z,61.37
2018-03-27T18:31:57.022Z,61.73
2018-03-27T18:32:56.988Z,61.84
2018-03-27T18:33:57.002Z,62.79
2018-03-27T18:34:57.013Z,63.03
2018-03-27T18:35:57.071Z,64.34
2018-03-27T18:36:57.007Z,63.27
2018-03-27T18:37:57.056Z,63.35
2018-03-27T18:38:57.009Z,64.18
2018-03-27T18:39:57.023Z,64.11
2018-03-27T18:40:56.989Z,63.91
2018-03-27T18:41:57.045Z,64.22
2018-03-27T18:42:57.012Z,63.61
2018-03-27T18:43:57.289Z,63.17
2018-03-27T18:44:56.991Z,63.66
2018-03-27T18:45:57.007Z,63.54
2018-03-27T18:46:57.012Z,63.4
2018-03-27T18:47:57.042Z,63.22
2018-03-27T18:48:57.068Z,63.41
2018-03-27T18:49:57.027Z,63.81
2018-03-27T18:50:57.190Z,63.48
2018-03-27T18:51:56.992Z,63.67
2018-03-27T18:52:57.003Z,64.15
2018-03-27T18:53:57.010Z,64.99
2018-03-27T18:54:57.064Z,63.93
2018-03-27T18:55:57.056Z,63.02
2018-03-27T18:56:57.071Z,64.84
2018-03-27T18:57:57.261Z,65.21
2018-03-27T18:58:57.099Z,65.88
2018-03-27T18:59:57.064Z,65.67
2018-03-27T19:00:57.004Z,65.4
2018-03-27T19:01:57.019Z,66.16
2018-03-27T19:02:57.010Z,65.88
2018-03-27T19:03:57.004Z,65.72
2018-03-27T19:04:57.045Z,65.85
2018-03-27T19:05:57.019Z,66.53
2018-03-27T19:06:57.096Z,66.3
2018-03-27T19:07:57.050Z,66.43
2018-03-27T19:08:57.019Z,68.39
2018-03-27T19:09:57.027Z,67.73
2018-03-27T19:10:57.041Z,66.91
2018-03-27T19:11:57.017Z,67.04
2018-03-27T19:12:57.012Z,68.66
2018-03-27T19:13:57.029Z,67.97
2018-03-27T19:14:57.043Z,68.97
2018-03-27T19:15:57.017Z,69.09
2018-03-27T19:16:57.020Z,68.95
2018-03-27T19:17:57.029Z,69.43
2018-03-27T19:18:57.011Z,70.33
2018-03-27T19:19:57.149Z,70.67
2018-03-27T19:20:57.004Z,69.85
2018-03-27T19:21:57.007Z,70.72
2018-03-27T19:22:57.046Z,70.1
2018-03-27T19:23:57.027Z,70.84
2018-03-27T19:24:57.001Z,71.17
2018-03-27T19:25:57.034Z,71.33
2018-03-27T19:26:57.185Z,71.09
2018-03-27T19:27:57.230Z,71.3
2018-03-27T19:28:57.040Z,71.34
2018-03-27T19:29:57.082Z,72.05
2018-03-27T19:30:57.220Z,72.27
2018-03-27T19:31:57.052Z,72.45
2018-03-27T19:32:57.026Z,72.59
2018-03-27T19:33:57.019Z,72.79
2018-03-27T19:34:57.015Z,72.97
2018-03-27T19:35:57.148Z,72.37
2018-03-27T19:36:57.098Z,72.06
2018-03-27T19:37:57.341Z,72.82
2018-03-27T19:38:57.160Z,72.64
2018-03-27T19:39:57.034Z,73.35
2018-03-27T19:40:57.115Z,74.22
2018-03-27T19:41:57.021Z,74.03
2018-03-27T19:42:57.057Z,74.77
2018-03-27T19:43:57.022Z,74.22
2018-03-27T19:44:57.024Z,74.97
2018-03-27T19:45:57.012Z,75.33
2018-03-27T19:46:57.043Z,74.83
2018-03-27T19:47:57.072Z,74.96
2018-03-27T19:48:57.016Z,74.54
2018-03-27T19:49:57.029Z,75.37